»·PEaware :: AAL1418 KSNA-KSBA

AAL1418 :: KSNA-KSBA

FLIGHT INFORMATION

Flight Status: Arrived
Operator:
American Airlines
More flights by this operator :: More flights under this callsign
Pilot: Vlad D. (11271)
Aircraft: MCDONNELL-DOUGLAS MD-80
(MD80)
More flights by this aircraft type
Origin: KSNA John Wayne-Orange Co
United States
Destination: KSBA Santa Barbara Mun
United States
More flights between these airports :: More routes between these airports
Route: +SXC V208 VTU VTU282R KWANG
File this flight plan on PilotEdge
Remarks: Newbie in the MD80 - Familiarization flight; Dealer's choice of departure.
Altitude:
(Current/Filed)
10,000ft
Speed:
(Current/Filed)
300kts
Departed: 28-May-16 08:45 AM
Arrived: 28-May-16 09:28 AM
Distance/Time
Traveled:
108nm/0:43
Distance/Time
To Go:
Arrived

Flight Plot

Page will automatically refresh every two minutes.


Map Options




Map Legend


Flown Route
Filed Route
Departure Airport
Arrival Airport
Navaid (VOR, NDB)
Fix

Horizontal Profiles

Position Reports

Time Latitude Longitude Heading Altitude Ground
Speed
28-May-16 08:08 33.678748 -117.863028 99 62ft 0kts
28-May-16 08:09 33.678748 -117.863028 99 62ft 0kts
28-May-16 08:10 33.678748 -117.863028 99 62ft 0kts
28-May-16 08:11 33.678748 -117.863028 99 62ft 0kts
28-May-16 08:12 33.678748 -117.863028 99 62ft 0kts
28-May-16 08:13 33.678748 -117.863028 99 62ft 0kts
28-May-16 08:14 33.678748 -117.863028 99 62ft 0kts
28-May-16 08:15 33.678748 -117.863028 99 62ft 0kts
28-May-16 08:16 33.678748 -117.863028 99 62ft 0kts
28-May-16 08:17 33.678748 -117.863028 99 62ft 0kts
28-May-16 08:18 33.678748 -117.863028 99 62ft 0kts
28-May-16 08:19 33.678748 -117.863028 99 62ft 0kts
28-May-16 08:20 33.678748 -117.863028 99 62ft 0kts
28-May-16 08:21 33.678748 -117.863028 99 62ft 0kts
28-May-16 08:22 33.678748 -117.863028 99 62ft 0kts
28-May-16 08:23 33.678748 -117.863028 99 62ft 0kts
28-May-16 08:24 33.678748 -117.863028 99 62ft 0kts
28-May-16 08:25 33.678748 -117.863028 99 62ft 0kts
28-May-16 08:26 33.678748 -117.863028 99 62ft 0kts
28-May-16 08:27 33.678748 -117.863028 99 62ft 0kts
28-May-16 08:28 33.678748 -117.863028 99 62ft 0kts
28-May-16 08:29 33.678748 -117.863028 99 62ft 0kts
28-May-16 08:30 33.678748 -117.863031 99 62ft 0kts
28-May-16 08:31 33.678748 -117.863042 99 62ft 0kts
28-May-16 08:32 33.678789 -117.863317 102 62ft 0kts
28-May-16 08:33 33.678746 -117.863496 39 62ft 0kts
28-May-16 08:34 33.678746 -117.863496 39 62ft 0kts
28-May-16 08:35 33.678746 -117.863496 39 62ft 0kts
28-May-16 08:36 33.678746 -117.863496 39 62ft 0kts
28-May-16 08:37 33.678746 -117.863496 39 62ft 0kts
28-May-16 08:38 33.679867 -117.862826 26 62ft 0kts
28-May-16 08:39 33.680467 -117.862875 316 62ft 6kts
28-May-16 08:40 33.681093 -117.864105 296 62ft 0kts
28-May-16 08:41 33.681093 -117.864105 296 62ft 0kts
28-May-16 08:42 33.681103 -117.864128 296 62ft 1kts
28-May-16 08:43 33.675031 -117.869254 206 63ft 125kts
28-May-16 08:44 33.626386 -117.884176 186 1862ft 235kts
28-May-16 08:45 33.548890 -117.896269 186 3780ft 295kts
28-May-16 08:46 33.497285 -117.944425 262 5517ft 258kts
28-May-16 08:47 33.491480 -118.031490 250 7334ft 264kts
28-May-16 08:48 33.448191 -118.081065 211 8894ft 277kts
28-May-16 08:49 33.375042 -118.148426 241 9985ft 292kts
28-May-16 08:50 33.365544 -118.228014 265 9987ft 294kts
28-May-16 08:51 33.360544 -118.324977 265 9990ft 293kts
28-May-16 08:52 33.355759 -118.422477 272 9983ft 294kts
28-May-16 08:53 33.406344 -118.491366 336 9997ft 296kts
28-May-16 08:54 33.468346 -118.555030 312 9991ft 296kts
28-May-16 08:55 33.522103 -118.629792 310 9991ft 296kts
28-May-16 08:56 33.576879 -118.702387 318 10023ft 296kts
28-May-16 08:57 33.637891 -118.768491 317 10014ft 295kts
28-May-16 08:58 33.698648 -118.835267 317 10007ft 295kts
28-May-16 08:59 33.759200 -118.901927 318 10009ft 296kts
28-May-16 09:00 33.819864 -118.968887 318 10009ft 297kts
28-May-16 09:01 33.880832 -119.036338 317 10009ft 298kts
28-May-16 09:02 33.941906 -119.104080 318 10009ft 298kts
28-May-16 09:03 34.002909 -119.171860 318 10007ft 298kts
28-May-16 09:04 34.063601 -119.239436 318 10003ft 297kts
28-May-16 09:05 34.123844 -119.306633 318 10000ft 297kts
28-May-16 09:06 34.184562 -119.374494 318 10000ft 297kts
28-May-16 09:07 34.240955 -119.445770 293 9240ft 294kts
28-May-16 09:08 34.258375 -119.537158 282 8222ft 264kts
28-May-16 09:09 34.273105 -119.620126 282 7188ft 242kts
28-May-16 09:10 34.287367 -119.699004 281 6183ft 238kts
28-May-16 09:11 34.301673 -119.776562 282 6000ft 237kts
28-May-16 09:12 34.316165 -119.854538 282 5999ft 237kts
28-May-16 09:13 34.330730 -119.932731 282 5999ft 237kts
28-May-16 09:14 34.345232 -120.010483 282 5999ft 237kts
28-May-16 09:15 34.353539 -120.084805 272 5994ft 200kts
28-May-16 09:16 34.357457 -120.151867 272 5989ft 198kts
28-May-16 09:17 34.361369 -120.218174 272 5983ft 196kts
28-May-16 09:18 34.398066 -120.253695 17 6011ft 203kts
28-May-16 09:19 34.430802 -120.200429 71 5974ft 200kts
28-May-16 09:20 34.425175 -120.135717 101 5068ft 177kts
28-May-16 09:21 34.422763 -120.078316 91 3839ft 168kts
28-May-16 09:22 34.423711 -120.024943 90 2844ft 148kts
28-May-16 09:23 34.424823 -119.975285 90 2012ft 146kts
28-May-16 09:24 34.425911 -119.926545 90 1213ft 144kts
28-May-16 09:25 34.427056 -119.878457 89 450ft 142kts
28-May-16 09:26 34.427749 -119.842556 89 19ft 17kts
28-May-16 09:27 34.427040 -119.841450 162 19ft 0kts
28-May-16 09:28 34.426992 -119.841431 162 19ft 2kts
28-May-16 09:29 34.426667 -119.838677 101 19ft 10kts
28-May-16 09:30 34.425222 -119.837506 119 19ft 2kts
28-May-16 09:31 34.425170 -119.837386 116 19ft 0kts
28-May-16 09:32 34.425170 -119.837386 116 19ft 0kts
28-May-16 09:33 34.425170 -119.837386 116 19ft 0kts

Navigation Log

Ident Type
Flight plan parsing failed, navigation log unavailable